1871 NOT_NAMED (1871192S04095)


IBTrACS version v04r00. Visit IBTrACS website for data access.
Please direct all questions to the IBTrACS Q and A forum

Storm track - Intensity - Wind Radii - Intensity Data - Source Data - All data

Summary Information

Storm ID 1871192S04095
Start Jul 11 06Z
End Jul 17 06Z
ATCF IDs
Track status Best track data.

Storm track plot

Map of storm track

Intensity plots

No Intensity information for this storm


Radial wind information

No radial wind information for this storm


Position and Intensity Table

BASIN ISO_TIME_________ NATURE LAT LON
degrees north degrees east
SI 1871-07-11 06:00:00 NR -3.70 95.20
SI 09:00:00 NR -3.70 95.25
SI 12:00:00 NR -3.71 95.28
SI 15:00:00 NR -3.74 95.31
SI 18:00:00 NR -3.78 95.30
SI 21:00:00 NR -3.85 95.27
SI 1871-07-12 00:00:00 NR -3.96 95.20
SI 03:00:00 NR -4.10 95.08
SI 06:00:00 NR -4.30 94.90
SI 09:00:00 NR -4.55 94.66
SI 12:00:00 NR -4.84 94.38
SI 15:00:00 NR -5.17 94.06
SI 18:00:00 NR -5.52 93.71
SI 21:00:00 NR -5.89 93.36
SI 1871-07-13 00:00:00 NR -6.27 93.01
SI 03:00:00 NR -6.64 92.69
SI 06:00:00 NR -7.00 92.40
SI 09:00:00 NR -7.28 92.18
SI 12:00:00 NR -7.55 91.98
SI 15:00:00 NR -7.81 91.81
SI 18:00:00 NR -8.07 91.66
SI 21:00:00 NR -8.35 91.54
SI 1871-07-14 00:00:00 NR -8.64 91.44
SI 03:00:00 NR -8.96 91.36
SI 06:00:00 NR -9.30 91.30
SI 09:00:00 NR -9.71 91.21
SI 12:00:00 NR -10.15 91.15
SI 15:00:00 NR -10.62 91.10
SI 18:00:00 NR -11.10 91.08
SI 21:00:00 NR -11.58 91.09
SI 1871-07-15 00:00:00 NR -12.07 91.13
SI 03:00:00 NR -12.54 91.20
SI 06:00:00 NR -13.00 91.30
SI 09:00:00 NR -13.44 91.46
SI 12:00:00 NR -13.87 91.65
SI 15:00:00 NR -14.28 91.88
SI 18:00:00 NR -14.67 92.12
SI 21:00:00 NR -15.05 92.38
SI 1871-07-16 00:00:00 NR -15.39 92.63
SI 03:00:00 NR -15.71 92.88
SI 06:00:00 NR -16.00 93.10
SI 09:00:00 NR -16.25 93.29
SI 12:00:00 NR -16.47 93.46
SI 15:00:00 NR -16.67 93.60
SI 18:00:00 NR -16.84 93.73
SI 21:00:00 NR -17.00 93.83
SI 1871-07-17 00:00:00 NR -17.14 93.93
SI 03:00:00 NR -17.27 94.02
SI 06:00:00 NR -17.40 94.10

Source Information

Agency Information
USA
TOKYO
CMA
HKO
NEWDELHI
REUNION WMO-Best-Tracks.txt:Line=891:xxxx871131
BOM
NADI
WELLINGTON
DS824
TD9636
TD9635
NEUMANN
MLC

All available IBTrACS Data

SEASON BASIN SUBBASIN ISO_TIME_________ NATURE LAT LON DIST2LAND LANDFALL IFLAG USA SSHS REUNION LAT REUNION LON REUNION TYPE REUNION TNUM STORM SPEED STORM DIR
Year degrees north degrees east km km 1 degrees north degrees east 1 kts degrees
1872 SI WA 1871-07-11 06:00:00 NR -3.70 95.20 468 468 _____O________ -1 -3.70 95.20 99 9.90 1 94
1872 SI WA 09:00:00 NR -3.70 95.25 468 458 _____P________ -1 -3.70 95.25 99 1 99
1872 SI WA 12:00:00 NR -3.71 95.28 458 458 _____P________ -1 -3.71 95.28 99 1 119
1872 SI WA 15:00:00 NR -3.74 95.31 458 458 _____P________ -1 -3.74 95.31 99 1 169
1872 SI WA 18:00:00 NR -3.78 95.30 464 464 _____P________ -1 -3.78 95.30 99 1 203
1872 SI WA 21:00:00 NR -3.85 95.27 470 470 _____P________ -1 -3.85 95.27 99 2 210
1872 SI WA 1871-07-12 00:00:00 NR -3.96 95.20 485 485 _____P________ -1 -3.96 95.20 99 3 217
1872 SI WA 03:00:00 NR -4.10 95.08 500 500 _____P________ -1 -4.10 95.08 99 5 221
1872 SI WA 06:00:00 NR -4.30 94.90 531 531 _____O________ -1 -4.30 94.90 99 9.90 6 223
1872 SI WA 09:00:00 NR -4.55 94.66 562 562 _____P________ -1 -4.55 94.66 99 8 224
1872 SI WA 12:00:00 NR -4.84 94.38 608 608 _____P________ -1 -4.84 94.38 99 9 224
1872 SI WA 15:00:00 NR -5.17 94.06 661 661 _____P________ -1 -5.17 94.06 99 10 224
1872 SI WA 18:00:00 NR -5.52 93.71 717 717 _____P________ -1 -5.52 93.71 99 10 224
1872 SI WA 21:00:00 NR -5.89 93.36 771 771 _____P________ -1 -5.89 93.36 99 10 223
1872 SI WA 1871-07-13 00:00:00 NR -6.27 93.01 833 833 _____P________ -1 -6.27 93.01 99 10 222
1872 SI WA 03:00:00 NR -6.64 92.69 880 880 _____P________ -1 -6.64 92.69 99 10 220
1872 SI WA 06:00:00 NR -7.00 92.40 934 934 _____O________ -1 -7.00 92.40 99 9.90 8 219
1872 SI WA 09:00:00 NR -7.28 92.18 972 972 _____P________ -1 -7.28 92.18 99 7 217
1872 SI WA 12:00:00 NR -7.55 91.98 1003 1003 _____P________ -1 -7.55 91.98 99 6 215
1872 SI WA 15:00:00 NR -7.81 91.81 1042 1042 _____P________ -1 -7.81 91.81 99 6 211
1872 SI WA 18:00:00 NR -8.07 91.66 1072 1072 _____P________ -1 -8.07 91.66 99 6 206
1872 SI WA 21:00:00 NR -8.35 91.54 1104 1104 _____P________ -1 -8.35 91.54 99 6 201
1872 SI WA 1871-07-14 00:00:00 NR -8.64 91.44 1134 1134 _____P________ -1 -8.64 91.44 99 6 196
1872 SI WA 03:00:00 NR -8.96 91.36 1165 1165 _____P________ -1 -8.96 91.36 99 7 192
1872 SI WA 06:00:00 NR -9.30 91.30 1197 1197 _____O________ -1 -9.30 91.30 99 9.90 8 191
1872 SI WA 09:00:00 NR -9.71 91.21 1236 1236 _____P________ -1 -9.71 91.21 99 9 190
1872 SI WA 12:00:00 NR -10.15 91.15 1285 1285 _____P________ -1 -10.15 91.15 99 9 187
1872 SI WA 15:00:00 NR -10.62 91.10 1318 1318 _____P________ -1 -10.62 91.10 99 10 184
1872 SI WA 18:00:00 NR -11.10 91.08 1360 1360 _____P________ -1 -11.10 91.08 99 10 0
1872 SI WA 21:00:00 NR -11.58 91.09 1404 1404 _____P________ -1 -11.58 91.09 99 10 178
1872 SI WA 1871-07-15 00:00:00 NR -12.07 91.13 1448 1448 _____P________ -1 -12.07 91.13 99 10 174
1872 SI WA 03:00:00 NR -12.54 91.20 1478 1478 _____P________ -1 -12.54 91.20 99 10 170
1872 SI WA 06:00:00 NR -13.00 91.30 1517 1517 _____O________ -1 -13.00 91.30 99 9.90 9 164
1872 SI WA 09:00:00 NR -13.44 91.46 1543 1543 _____P________ -1 -13.44 91.46 99 9 159
1872 SI WA 12:00:00 NR -13.87 91.65 1579 1579 _____P________ -1 -13.87 91.65 99 9 154
1872 SI WA 15:00:00 NR -14.28 91.88 1607 1607 _____P________ -1 -14.28 91.88 99 9 150
1872 SI WA 18:00:00 NR -14.67 92.12 1636 1631 _____P________ -1 -14.67 92.12 99 9 148
1872 SI WA 21:00:00 NR -15.05 92.38 1641 1641 _____P________ -1 -15.05 92.38 99 9 146
1872 SI WA 1871-07-16 00:00:00 NR -15.39 92.63 1660 1653 _____P________ -1 -15.39 92.63 99 8 144
1872 SI WA 03:00:00 NR -15.71 92.88 1664 1664 _____P________ -1 -15.71 92.88 99 8 143
1872 SI WA 06:00:00 NR -16.00 93.10 1673 1669 _____O________ -1 -16.00 93.10 99 9.90 7 143
1872 SI WA 09:00:00 NR -16.25 93.29 1676 1667 _____P________ -1 -16.25 93.29 99 6 144
1872 SI WA 12:00:00 NR -16.47 93.46 1673 1672 _____P________ -1 -16.47 93.46 99 5 145
1872 SI WA 15:00:00 NR -16.67 93.60 1679 1671 _____P________ -1 -16.67 93.60 99 4 146
1872 SI WA 18:00:00 NR -16.84 93.73 1678 1677 _____P________ -1 -16.84 93.73 99 4 146
1872 SI WA 21:00:00 NR -17.00 93.83 1685 1677 _____P________ -1 -17.00 93.83 99 4 147
1872 SI WA 1871-07-17 00:00:00 NR -17.14 93.93 1684 1684 _____P________ -1 -17.14 93.93 99 3 148
1872 SI WA 03:00:00 NR -17.27 94.02 1691 1684 _____P________ -1 -17.27 94.02 99 3 148
1872 SI WA 06:00:00 NR -17.40 94.10 1691 _____O________ -1 -17.40 94.10 99 9.90 3 147